sensor_id;sensor_type;location;lat;lon;timestamp;temperature;humidity
62583;DHT22;48641;51.676;5.808;2022-07-21T00:02:07;26.60;53.80
62583;DHT22;48641;51.676;5.808;2022-07-21T00:04:32;26.60;53.90
62583;DHT22;48641;51.676;5.808;2022-07-21T00:06:58;26.60;53.80
62583;DHT22;48641;51.676;5.808;2022-07-21T00:09:24;26.60;53.80
62583;DHT22;48641;51.676;5.808;2022-07-21T00:11:49;26.60;53.90
62583;DHT22;48641;51.676;5.808;2022-07-21T00:14:15;26.60;53.90
62583;DHT22;48641;51.676;5.808;2022-07-21T00:16:42;26.60;53.90
62583;DHT22;48641;51.676;5.808;2022-07-21T00:19:08;26.60;53.90
62583;DHT22;48641;51.676;5.808;2022-07-21T00:21:34;26.60;54.00
62583;DHT22;48641;51.676;5.808;2022-07-21T00:24:00;26.50;54.00
62583;DHT22;48641;51.676;5.808;2022-07-21T00:26:25;26.50;54.00
62583;DHT22;48641;51.676;5.808;2022-07-21T00:28:51;26.50;54.00
62583;DHT22;48641;51.676;5.808;2022-07-21T00:31:16;26.50;54.10
62583;DHT22;48641;51.676;5.808;2022-07-21T00:33:42;26.50;54.10
62583;DHT22;48641;51.676;5.808;2022-07-21T00:36:08;26.50;54.20
62583;DHT22;48641;51.676;5.808;2022-07-21T00:38:33;26.50;54.10
62583;DHT22;48641;51.676;5.808;2022-07-21T00:40:59;26.50;54.10
62583;DHT22;48641;51.676;5.808;2022-07-21T00:43:24;26.50;54.10
62583;DHT22;48641;51.676;5.808;2022-07-21T00:45:54;26.40;54.00
62583;DHT22;48641;51.676;5.808;2022-07-21T00:48:20;26.50;54.00
62583;DHT22;48641;51.676;5.808;2022-07-21T00:50:46;26.50;54.00
62583;DHT22;48641;51.676;5.808;2022-07-21T00:53:11;26.40;54.00
62583;DHT22;48641;51.676;5.808;2022-07-21T00:55:37;26.40;54.00
62583;DHT22;48641;51.676;5.808;2022-07-21T00:58:03;26.40;54.10
62583;DHT22;48641;51.676;5.808;2022-07-21T01:00:29;26.40;54.10
62583;DHT22;48641;51.676;5.808;2022-07-21T01:02:56;26.40;54.10
62583;DHT22;48641;51.676;5.808;2022-07-21T01:05:22;26.40;54.20
62583;DHT22;48641;51.676;5.808;2022-07-21T01:07:51;26.40;54.30
62583;DHT22;48641;51.676;5.808;2022-07-21T01:10:19;26.40;54.30
62583;DHT22;48641;51.676;5.808;2022-07-21T01:12:45;26.40;54.30
62583;DHT22;48641;51.676;5.808;2022-07-21T01:15:12;26.40;54.30
62583;DHT22;48641;51.676;5.808;2022-07-21T01:17:38;26.40;54.30
62583;DHT22;48641;51.676;5.808;2022-07-21T01:20:10;26.40;54.20
62583;DHT22;48641;51.676;5.808;2022-07-21T01:22:38;26.30;54.10
62583;DHT22;48641;51.676;5.808;2022-07-21T01:25:04;26.30;54.20
62583;DHT22;48641;51.676;5.808;2022-07-21T01:27:30;26.30;54.20
62583;DHT22;48641;51.676;5.808;2022-07-21T01:29:56;26.30;54.20
62583;DHT22;48641;51.676;5.808;2022-07-21T01:32:22;26.30;54.30
62583;DHT22;48641;51.676;5.808;2022-07-21T01:34:48;26.30;54.30
62583;DHT22;48641;51.676;5.808;2022-07-21T01:37:14;26.30;54.30
62583;DHT22;48641;51.676;5.808;2022-07-21T01:39:40;26.30;54.30
62583;DHT22;48641;51.676;5.808;2022-07-21T01:42:24;26.30;54.40
62583;DHT22;48641;51.676;5.808;2022-07-21T01:44:50;26.30;54.30
62583;DHT22;48641;51.676;5.808;2022-07-21T01:47:16;26.30;54.30
62583;DHT22;48641;51.676;5.808;2022-07-21T01:49:43;26.20;54.20
62583;DHT22;48641;51.676;5.808;2022-07-21T01:52:09;26.30;54.30
62583;DHT22;48641;51.676;5.808;2022-07-21T01:54:35;26.30;54.30
62583;DHT22;48641;51.676;5.808;2022-07-21T01:57:01;26.20;54.30
62583;DHT22;48641;51.676;5.808;2022-07-21T01:59:26;26.20;54.20
62583;DHT22;48641;51.676;5.808;2022-07-21T02:01:52;26.20;54.20
62583;DHT22;48641;51.676;5.808;2022-07-21T02:04:17;26.20;54.30
62583;DHT22;48641;51.676;5.808;2022-07-21T02:06:44;26.20;54.30
62583;DHT22;48641;51.676;5.808;2022-07-21T02:09:10;26.20;54.30
62583;DHT22;48641;51.676;5.808;2022-07-21T02:11:35;26.20;54.30
62583;DHT22;48641;51.676;5.808;2022-07-21T02:14:01;26.10;54.30
62583;DHT22;48641;51.676;5.808;2022-07-21T02:16:27;26.20;54.40
62583;DHT22;48641;51.676;5.808;2022-07-21T02:18:52;26.20;54.40
62583;DHT22;48641;51.676;5.808;2022-07-21T02:21:18;26.10;54.30
62583;DHT22;48641;51.676;5.808;2022-07-21T02:23:44;26.10;54.20
62583;DHT22;48641;51.676;5.808;2022-07-21T02:26:09;26.10;54.20
62583;DHT22;48641;51.676;5.808;2022-07-21T02:28:36;26.20;54.30
62583;DHT22;48641;51.676;5.808;2022-07-21T02:31:02;26.10;54.30
62583;DHT22;48641;51.676;5.808;2022-07-21T02:33:28;26.10;54.20
62583;DHT22;48641;51.676;5.808;2022-07-21T02:35:53;26.10;54.30
62583;DHT22;48641;51.676;5.808;2022-07-21T02:38:19;26.10;54.20
62583;DHT22;48641;51.676;5.808;2022-07-21T02:40:45;26.10;54.30
62583;DHT22;48641;51.676;5.808;2022-07-21T02:43:10;26.10;54.30
62583;DHT22;48641;51.676;5.808;2022-07-21T02:45:36;26.10;54.30
62583;DHT22;48641;51.676;5.808;2022-07-21T02:48:09;26.00;54.30
62583;DHT22;48641;51.676;5.808;2022-07-21T02:50:37;26.00;54.30
62583;DHT22;48641;51.676;5.808;2022-07-21T02:53:07;26.00;54.30
62583;DHT22;48641;51.676;5.808;2022-07-21T02:55:33;26.00;54.30
62583;DHT22;48641;51.676;5.808;2022-07-21T02:58:08;26.00;54.30
62583;DHT22;48641;51.676;5.808;2022-07-21T03:00:48;26.00;54.30
62583;DHT22;48641;51.676;5.808;2022-07-21T03:03:13;26.00;54.30
62583;DHT22;48641;51.676;5.808;2022-07-21T03:05:39;26.00;54.40
62583;DHT22;48641;51.676;5.808;2022-07-21T03:08:06;26.00;54.50
62583;DHT22;48641;51.676;5.808;2022-07-21T03:10:31;26.00;54.50
62583;DHT22;48641;51.676;5.808;2022-07-21T03:12:57;26.00;54.50
62583;DHT22;48641;51.676;5.808;2022-07-21T03:15:22;26.00;54.50
62583;DHT22;48641;51.676;5.808;2022-07-21T03:17:48;25.90;54.40
62583;DHT22;48641;51.676;5.808;2022-07-21T03:20:14;25.90;54.50
62583;DHT22;48641;51.676;5.808;2022-07-21T03:22:39;25.90;54.50
62583;DHT22;48641;51.676;5.808;2022-07-21T03:25:05;25.90;54.40
62583;DHT22;48641;51.676;5.808;2022-07-21T03:27:31;25.90;54.50
62583;DHT22;48641;51.676;5.808;2022-07-21T03:30:02;25.90;54.50
62583;DHT22;48641;51.676;5.808;2022-07-21T03:32:28;25.90;54.50
62583;DHT22;48641;51.676;5.808;2022-07-21T03:34:54;25.90;54.50
62583;DHT22;48641;51.676;5.808;2022-07-21T03:37:19;25.90;54.50
62583;DHT22;48641;51.676;5.808;2022-07-21T03:39:45;25.90;54.50
62583;DHT22;48641;51.676;5.808;2022-07-21T03:42:10;25.90;54.50
62583;DHT22;48641;51.676;5.808;2022-07-21T03:44:36;25.90;54.50
62583;DHT22;48641;51.676;5.808;2022-07-21T03:47:01;25.90;54.60
62583;DHT22;48641;51.676;5.808;2022-07-21T03:49:28;25.90;54.70
62583;DHT22;48641;51.676;5.808;2022-07-21T03:51:53;25.90;54.60
62583;DHT22;48641;51.676;5.808;2022-07-21T03:54:19;25.90;54.60
62583;DHT22;48641;51.676;5.808;2022-07-21T03:56:45;25.90;54.60
62583;DHT22;48641;51.676;5.808;2022-07-21T03:59:10;25.90;54.60
62583;DHT22;48641;51.676;5.808;2022-07-21T04:01:36;25.80;54.60
62583;DHT22;48641;51.676;5.808;2022-07-21T04:04:01;25.80;54.60
62583;DHT22;48641;51.676;5.808;2022-07-21T04:06:27;25.80;54.60
62583;DHT22;48641;51.676;5.808;2022-07-21T04:08:52;25.90;54.60
62583;DHT22;48641;51.676;5.808;2022-07-21T04:11:18;25.90;54.60
62583;DHT22;48641;51.676;5.808;2022-07-21T04:13:43;25.90;54.60
62583;DHT22;48641;51.676;5.808;2022-07-21T04:16:09;25.80;54.60
62583;DHT22;48641;51.676;5.808;2022-07-21T04:18:35;25.80;54.60
62583;DHT22;48641;51.676;5.808;2022-07-21T04:21:00;25.80;54.60
62583;DHT22;48641;51.676;5.808;2022-07-21T04:23:26;25.80;54.60
62583;DHT22;48641;51.676;5.808;2022-07-21T04:25:51;25.80;54.60
62583;DHT22;48641;51.676;5.808;2022-07-21T04:28:17;25.80;54.60
62583;DHT22;48641;51.676;5.808;2022-07-21T04:30:42;25.80;54.60
62583;DHT22;48641;51.676;5.808;2022-07-21T04:33:08;25.80;54.60
62583;DHT22;48641;51.676;5.808;2022-07-21T04:35:34;25.80;54.70
62583;DHT22;48641;51.676;5.808;2022-07-21T04:38:00;25.70;54.70
62583;DHT22;48641;51.676;5.808;2022-07-21T04:40:26;25.70;54.70
62583;DHT22;48641;51.676;5.808;2022-07-21T04:42:52;25.70;54.70
62583;DHT22;48641;51.676;5.808;2022-07-21T04:45:17;25.70;54.70
62583;DHT22;48641;51.676;5.808;2022-07-21T04:47:45;25.70;54.70
62583;DHT22;48641;51.676;5.808;2022-07-21T04:50:11;25.70;54.70
62583;DHT22;48641;51.676;5.808;2022-07-21T04:52:37;25.70;54.70
62583;DHT22;48641;51.676;5.808;2022-07-21T04:55:03;25.70;54.70
62583;DHT22;48641;51.676;5.808;2022-07-21T04:57:29;25.70;55.80
62583;DHT22;48641;51.676;5.808;2022-07-21T04:59:54;25.70;54.90
62583;DHT22;48641;51.676;5.808;2022-07-21T05:02:20;25.70;54.80
62583;DHT22;48641;51.676;5.808;2022-07-21T05:04:45;25.60;54.80
62583;DHT22;48641;51.676;5.808;2022-07-21T05:07:11;25.60;54.80
62583;DHT22;48641;51.676;5.808;2022-07-21T05:09:36;25.60;54.90
62583;DHT22;48641;51.676;5.808;2022-07-21T05:12:02;25.60;54.80
62583;DHT22;48641;51.676;5.808;2022-07-21T05:14:28;25.60;54.70
62583;DHT22;48641;51.676;5.808;2022-07-21T05:16:53;25.60;54.80
62583;DHT22;48641;51.676;5.808;2022-07-21T05:19:19;25.60;54.70
62583;DHT22;48641;51.676;5.808;2022-07-21T05:21:44;25.70;54.90
62583;DHT22;48641;51.676;5.808;2022-07-21T05:24:10;25.60;54.80
62583;DHT22;48641;51.676;5.808;2022-07-21T05:26:36;25.60;54.90
62583;DHT22;48641;51.676;5.808;2022-07-21T05:29:02;25.60;54.90
62583;DHT22;48641;51.676;5.808;2022-07-21T05:31:28;25.60;54.90
62583;DHT22;48641;51.676;5.808;2022-07-21T05:33:54;25.60;54.90
62583;DHT22;48641;51.676;5.808;2022-07-21T05:36:19;25.60;55.00
62583;DHT22;48641;51.676;5.808;2022-07-21T05:38:45;25.60;55.00
62583;DHT22;48641;51.676;5.808;2022-07-21T05:41:11;25.60;55.00
62583;DHT22;48641;51.676;5.808;2022-07-21T05:43:36;25.60;55.10
62583;DHT22;48641;51.676;5.808;2022-07-21T05:46:02;25.60;55.10
62583;DHT22;48641;51.676;5.808;2022-07-21T05:48:28;25.60;55.00
62583;DHT22;48641;51.676;5.808;2022-07-21T05:50:53;25.60;55.00
62583;DHT22;48641;51.676;5.808;2022-07-21T05:53:19;25.60;55.10
62583;DHT22;48641;51.676;5.808;2022-07-21T05:55:44;25.60;55.10
62583;DHT22;48641;51.676;5.808;2022-07-21T05:58:10;25.60;55.10
62583;DHT22;48641;51.676;5.808;2022-07-21T06:00:36;25.60;55.10
62583;DHT22;48641;51.676;5.808;2022-07-21T06:03:01;25.60;55.10
62583;DHT22;48641;51.676;5.808;2022-07-21T06:05:27;25.60;55.20
62583;DHT22;48641;51.676;5.808;2022-07-21T06:07:52;25.60;55.30
62583;DHT22;48641;51.676;5.808;2022-07-21T06:10:18;25.60;55.30
62583;DHT22;48641;51.676;5.808;2022-07-21T06:12:44;25.50;55.40
62583;DHT22;48641;51.676;5.808;2022-07-21T06:15:10;25.50;55.40
62583;DHT22;48641;51.676;5.808;2022-07-21T06:17:41;25.50;55.40
62583;DHT22;48641;51.676;5.808;2022-07-21T06:20:08;25.60;55.50
62583;DHT22;48641;51.676;5.808;2022-07-21T06:22:34;25.50;55.40
62583;DHT22;48641;51.676;5.808;2022-07-21T06:25:00;25.50;55.50
62583;DHT22;48641;51.676;5.808;2022-07-21T06:27:25;25.50;55.50
62583;DHT22;48641;51.676;5.808;2022-07-21T06:29:51;25.50;55.50
62583;DHT22;48641;51.676;5.808;2022-07-21T06:32:16;25.50;55.40
62583;DHT22;48641;51.676;5.808;2022-07-21T06:34:42;25.50;55.40
62583;DHT22;48641;51.676;5.808;2022-07-21T06:37:07;25.50;55.50
62583;DHT22;48641;51.676;5.808;2022-07-21T06:39:33;25.50;55.60
62583;DHT22;48641;51.676;5.808;2022-07-21T06:41:59;25.50;55.60
62583;DHT22;48641;51.676;5.808;2022-07-21T06:44:24;25.50;55.60
62583;DHT22;48641;51.676;5.808;2022-07-21T06:46:50;25.40;55.50
62583;DHT22;48641;51.676;5.808;2022-07-21T06:49:16;25.40;55.70
62583;DHT22;48641;51.676;5.808;2022-07-21T06:51:41;25.40;55.60
62583;DHT22;48641;51.676;5.808;2022-07-21T06:54:07;25.40;55.80
62583;DHT22;48641;51.676;5.808;2022-07-21T06:56:32;25.40;55.90
62583;DHT22;48641;51.676;5.808;2022-07-21T06:58:58;25.30;56.30
62583;DHT22;48641;51.676;5.808;2022-07-21T07:01:24;25.30;56.40
62583;DHT22;48641;51.676;5.808;2022-07-21T07:03:49;25.20;56.30
62583;DHT22;48641;51.676;5.808;2022-07-21T07:06:15;25.20;56.40
62583;DHT22;48641;51.676;5.808;2022-07-21T07:08:41;25.20;56.60
62583;DHT22;48641;51.676;5.808;2022-07-21T07:11:06;25.20;56.70
62583;DHT22;48641;51.676;5.808;2022-07-21T07:13:32;25.20;56.70
62583;DHT22;48641;51.676;5.808;2022-07-21T07:15:57;25.10;56.80
62583;DHT22;48641;51.676;5.808;2022-07-21T07:18:23;25.10;56.80
62583;DHT22;48641;51.676;5.808;2022-07-21T07:20:50;25.10;56.90
62583;DHT22;48641;51.676;5.808;2022-07-21T07:23:16;25.00;57.00
62583;DHT22;48641;51.676;5.808;2022-07-21T07:25:42;25.00;57.10
62583;DHT22;48641;51.676;5.808;2022-07-21T07:28:08;25.00;57.40
62583;DHT22;48641;51.676;5.808;2022-07-21T07:30:34;25.00;57.30
62583;DHT22;48641;51.676;5.808;2022-07-21T07:33:00;25.00;57.60
62583;DHT22;48641;51.676;5.808;2022-07-21T07:35:26;24.90;57.60
62583;DHT22;48641;51.676;5.808;2022-07-21T07:37:51;24.90;57.80
62583;DHT22;48641;51.676;5.808;2022-07-21T07:40:20;24.90;57.90
62583;DHT22;48641;51.676;5.808;2022-07-21T07:42:46;24.90;58.10
62583;DHT22;48641;51.676;5.808;2022-07-21T07:45:13;24.90;58.00
62583;DHT22;48641;51.676;5.808;2022-07-21T07:47:39;24.90;58.00
62583;DHT22;48641;51.676;5.808;2022-07-21T07:50:06;24.90;58.00
62583;DHT22;48641;51.676;5.808;2022-07-21T07:52:34;24.90;58.20
62583;DHT22;48641;51.676;5.808;2022-07-21T07:55:00;24.90;58.30
62583;DHT22;48641;51.676;5.808;2022-07-21T07:57:29;24.90;58.40
62583;DHT22;48641;51.676;5.808;2022-07-21T07:59:54;24.80;58.30
62583;DHT22;48641;51.676;5.808;2022-07-21T08:02:20;24.80;58.20
62583;DHT22;48641;51.676;5.808;2022-07-21T08:04:46;24.80;58.30
62583;DHT22;48641;51.676;5.808;2022-07-21T08:07:11;24.80;58.30
62583;DHT22;48641;51.676;5.808;2022-07-21T08:09:38;24.80;58.30
62583;DHT22;48641;51.676;5.808;2022-07-21T08:12:04;24.80;58.30
62583;DHT22;48641;51.676;5.808;2022-07-21T08:14:29;24.80;58.40
62583;DHT22;48641;51.676;5.808;2022-07-21T08:16:55;24.80;58.50
62583;DHT22;48641;51.676;5.808;2022-07-21T08:19:20;24.80;58.50
62583;DHT22;48641;51.676;5.808;2022-07-21T08:21:46;24.80;58.60
62583;DHT22;48641;51.676;5.808;2022-07-21T08:24:11;24.80;58.50
62583;DHT22;48641;51.676;5.808;2022-07-21T08:26:37;24.80;58.70
62583;DHT22;48641;51.676;5.808;2022-07-21T08:29:03;24.90;58.70
62583;DHT22;48641;51.676;5.808;2022-07-21T08:31:28;24.80;58.70
62583;DHT22;48641;51.676;5.808;2022-07-21T08:33:54;24.90;58.90
62583;DHT22;48641;51.676;5.808;2022-07-21T08:36:20;24.90;60.00
62583;DHT22;48641;51.676;5.808;2022-07-21T08:38:45;24.80;59.10
62583;DHT22;48641;51.676;5.808;2022-07-21T08:41:11;24.80;58.90
62583;DHT22;48641;51.676;5.808;2022-07-21T08:43:37;24.80;58.90
62583;DHT22;48641;51.676;5.808;2022-07-21T08:46:04;24.80;58.90
62583;DHT22;48641;51.676;5.808;2022-07-21T08:48:30;24.80;59.00
62583;DHT22;48641;51.676;5.808;2022-07-21T08:50:56;24.70;59.10
62583;DHT22;48641;51.676;5.808;2022-07-21T08:53:23;24.70;59.00
62583;DHT22;48641;51.676;5.808;2022-07-21T08:55:48;24.70;59.00
62583;DHT22;48641;51.676;5.808;2022-07-21T08:58:14;24.70;59.10
62583;DHT22;48641;51.676;5.808;2022-07-21T09:00:42;24.70;59.00
62583;DHT22;48641;51.676;5.808;2022-07-21T09:05:37;24.60;59.00
62583;DHT22;48641;51.676;5.808;2022-07-21T09:08:03;24.60;59.00
62583;DHT22;48641;51.676;5.808;2022-07-21T09:10:30;24.70;59.00
62583;DHT22;48641;51.676;5.808;2022-07-21T09:13:01;24.70;59.00
62583;DHT22;48641;51.676;5.808;2022-07-21T09:15:28;24.70;59.00
62583;DHT22;48641;51.676;5.808;2022-07-21T09:18:14;24.70;59.00
62583;DHT22;48641;51.676;5.808;2022-07-21T09:20:49;24.70;58.90
62583;DHT22;48641;51.676;5.808;2022-07-21T09:23:18;24.70;59.00
62583;DHT22;48641;51.676;5.808;2022-07-21T09:25:47;24.70;59.30
62583;DHT22;48641;51.676;5.808;2022-07-21T09:28:24;24.70;59.80
62583;DHT22;48641;51.676;5.808;2022-07-21T09:30:58;24.70;60.00
62583;DHT22;48641;51.676;5.808;2022-07-21T09:33:32;24.80;60.60
62583;DHT22;48641;51.676;5.808;2022-07-21T09:38:39;24.80;60.70
62583;DHT22;48641;51.676;5.808;2022-07-21T09:41:07;24.90;60.60
62583;DHT22;48641;51.676;5.808;2022-07-21T09:46:09;24.90;61.20
62583;DHT22;48641;51.676;5.808;2022-07-21T09:48:37;25.00;61.30
62583;DHT22;48641;51.676;5.808;2022-07-21T09:51:31;25.00;60.40
62583;DHT22;48641;51.676;5.808;2022-07-21T09:56:26;25.00;61.00
62583;DHT22;48641;51.676;5.808;2022-07-21T09:58:53;25.00;60.80
62583;DHT22;48641;51.676;5.808;2022-07-21T10:01:21;25.00;60.90
62583;DHT22;48641;51.676;5.808;2022-07-21T10:03:48;25.00;61.10
62583;DHT22;48641;51.676;5.808;2022-07-21T10:06:17;25.10;60.90
62583;DHT22;48641;51.676;5.808;2022-07-21T10:08:43;25.10;60.50
62583;DHT22;48641;51.676;5.808;2022-07-21T10:11:10;25.10;61.20
62583;DHT22;48641;51.676;5.808;2022-07-21T10:13:37;25.10;60.60
62583;DHT22;48641;51.676;5.808;2022-07-21T10:16:03;25.20;61.40
62583;DHT22;48641;51.676;5.808;2022-07-21T10:18:34;26.10;60.90
62583;DHT22;48641;51.676;5.808;2022-07-21T10:21:14;27.00;58.50
62583;DHT22;48641;51.676;5.808;2022-07-21T10:23:42;27.30;57.50
62583;DHT22;48641;51.676;5.808;2022-07-21T10:26:09;27.30;57.10
62583;DHT22;48641;51.676;5.808;2022-07-21T10:28:36;27.60;56.60
62583;DHT22;48641;51.676;5.808;2022-07-21T10:31:22;27.50;55.80
62583;DHT22;48641;51.676;5.808;2022-07-21T10:41:40;26.70;56.30
62583;DHT22;48641;51.676;5.808;2022-07-21T10:47:09;26.40;56.00
62583;DHT22;48641;51.676;5.808;2022-07-21T10:55:22;26.10;56.30
62583;DHT22;48641;51.676;5.808;2022-07-21T10:58:16;26.00;56.50
62583;DHT22;48641;51.676;5.808;2022-07-21T11:03:34;25.80;56.90
62583;DHT22;48641;51.676;5.808;2022-07-21T11:06:13;25.70;57.20
62583;DHT22;48641;51.676;5.808;2022-07-21T11:08:45;25.70;57.40
62583;DHT22;48641;51.676;5.808;2022-07-21T11:11:24;25.60;57.50
62583;DHT22;48641;51.676;5.808;2022-07-21T11:14:14;25.60;57.50
62583;DHT22;48641;51.676;5.808;2022-07-21T11:19:44;25.40;58.10
62583;DHT22;48641;51.676;5.808;2022-07-21T11:22:26;25.40;58.20
62583;DHT22;48641;51.676;5.808;2022-07-21T11:25:04;25.40;59.20
62583;DHT22;48641;51.676;5.808;2022-07-21T11:27:36;25.30;59.70
62583;DHT22;48641;51.676;5.808;2022-07-21T11:30:05;25.30;59.10
62583;DHT22;48641;51.676;5.808;2022-07-21T11:32:31;25.30;59.50
62583;DHT22;48641;51.676;5.808;2022-07-21T11:35:02;25.30;59.00
62583;DHT22;48641;51.676;5.808;2022-07-21T11:37:32;25.30;59.20
62583;DHT22;48641;51.676;5.808;2022-07-21T11:39:59;25.30;59.90
62583;DHT22;48641;51.676;5.808;2022-07-21T11:42:26;25.30;60.60
62583;DHT22;48641;51.676;5.808;2022-07-21T11:44:52;25.30;60.20
62583;DHT22;48641;51.676;5.808;2022-07-21T11:47:17;25.30;61.40
62583;DHT22;48641;51.676;5.808;2022-07-21T11:49:45;25.30;63.10
62583;DHT22;48641;51.676;5.808;2022-07-21T11:52:15;25.30;64.30
62583;DHT22;48641;51.676;5.808;2022-07-21T11:54:47;25.30;65.20
62583;DHT22;48641;51.676;5.808;2022-07-21T11:57:15;25.30;66.40
62583;DHT22;48641;51.676;5.808;2022-07-21T11:59:41;25.40;66.80
62583;DHT22;48641;51.676;5.808;2022-07-21T12:02:07;25.40;66.70
62583;DHT22;48641;51.676;5.808;2022-07-21T12:09:44;25.40;67.10
62583;DHT22;48641;51.676;5.808;2022-07-21T12:12:10;25.40;66.50
62583;DHT22;48641;51.676;5.808;2022-07-21T12:14:43;25.40;67.10
62583;DHT22;48641;51.676;5.808;2022-07-21T12:17:09;25.50;68.30
62583;DHT22;48641;51.676;5.808;2022-07-21T12:19:36;25.50;66.90
62583;DHT22;48641;51.676;5.808;2022-07-21T12:22:02;25.50;66.00
62583;DHT22;48641;51.676;5.808;2022-07-21T12:24:56;25.40;64.90
62583;DHT22;48641;51.676;5.808;2022-07-21T12:27:23;25.40;63.60
62583;DHT22;48641;51.676;5.808;2022-07-21T12:29:49;25.40;62.80
62583;DHT22;48641;51.676;5.808;2022-07-21T12:32:20;25.40;62.30
62583;DHT22;48641;51.676;5.808;2022-07-21T12:35:00;25.40;62.00
62583;DHT22;48641;51.676;5.808;2022-07-21T12:40:24;25.30;61.50
62583;DHT22;48641;51.676;5.808;2022-07-21T12:42:51;25.20;61.20
62583;DHT22;48641;51.676;5.808;2022-07-21T12:45:27;25.20;61.00
62583;DHT22;48641;51.676;5.808;2022-07-21T12:48:23;25.20;60.80
62583;DHT22;48641;51.676;5.808;2022-07-21T12:53:42;25.20;60.70
62583;DHT22;48641;51.676;5.808;2022-07-21T12:56:09;25.10;60.70
62583;DHT22;48641;51.676;5.808;2022-07-21T12:58:36;25.10;60.60
62583;DHT22;48641;51.676;5.808;2022-07-21T13:01:03;25.10;60.80
62583;DHT22;48641;51.676;5.808;2022-07-21T13:03:30;25.00;60.70
62583;DHT22;48641;51.676;5.808;2022-07-21T13:05:57;25.00;60.70
62583;DHT22;48641;51.676;5.808;2022-07-21T13:08:23;25.00;60.60
62583;DHT22;48641;51.676;5.808;2022-07-21T13:10:48;25.00;60.60
62583;DHT22;48641;51.676;5.808;2022-07-21T13:13:14;25.00;60.60
62583;DHT22;48641;51.676;5.808;2022-07-21T13:15:39;25.00;60.60
62583;DHT22;48641;51.676;5.808;2022-07-21T13:18:05;25.00;60.50
62583;DHT22;48641;51.676;5.808;2022-07-21T13:20:31;25.00;60.50
62583;DHT22;48641;51.676;5.808;2022-07-21T13:22:56;25.00;60.60
62583;DHT22;48641;51.676;5.808;2022-07-21T13:25:22;25.00;60.40
62583;DHT22;48641;51.676;5.808;2022-07-21T13:27:47;24.90;60.30
62583;DHT22;48641;51.676;5.808;2022-07-21T13:30:13;24.90;60.50
62583;DHT22;48641;51.676;5.808;2022-07-21T13:32:39;24.90;60.60
62583;DHT22;48641;51.676;5.808;2022-07-21T13:35:06;24.90;60.40
62583;DHT22;48641;51.676;5.808;2022-07-21T13:37:32;24.90;60.30
62583;DHT22;48641;51.676;5.808;2022-07-21T13:39:58;24.90;60.30
62583;DHT22;48641;51.676;5.808;2022-07-21T13:42:23;24.90;60.20
62583;DHT22;48641;51.676;5.808;2022-07-21T13:44:49;24.90;60.40
62583;DHT22;48641;51.676;5.808;2022-07-21T13:47:16;24.90;60.50
62583;DHT22;48641;51.676;5.808;2022-07-21T13:49:42;24.90;61.20
62583;DHT22;48641;51.676;5.808;2022-07-21T13:52:07;24.90;61.20
62583;DHT22;48641;51.676;5.808;2022-07-21T13:54:34;24.90;61.20
62583;DHT22;48641;51.676;5.808;2022-07-21T13:57:00;24.90;61.30
62583;DHT22;48641;51.676;5.808;2022-07-21T13:59:26;24.90;61.00
62583;DHT22;48641;51.676;5.808;2022-07-21T14:01:52;24.90;60.60
62583;DHT22;48641;51.676;5.808;2022-07-21T14:04:18;24.90;60.80
62583;DHT22;48641;51.676;5.808;2022-07-21T14:06:44;24.90;61.30
62583;DHT22;48641;51.676;5.808;2022-07-21T14:09:14;25.00;61.70
62583;DHT22;48641;51.676;5.808;2022-07-21T14:11:40;25.00;61.60
62583;DHT22;48641;51.676;5.808;2022-07-21T14:14:06;25.00;61.40
62583;DHT22;48641;51.676;5.808;2022-07-21T14:16:31;25.00;61.60
62583;DHT22;48641;51.676;5.808;2022-07-21T14:18:57;25.00;61.70
62583;DHT22;48641;51.676;5.808;2022-07-21T14:21:23;25.00;61.40
62583;DHT22;48641;51.676;5.808;2022-07-21T14:23:49;25.00;61.50
62583;DHT22;48641;51.676;5.808;2022-07-21T14:26:34;25.00;61.60
62583;DHT22;48641;51.676;5.808;2022-07-21T14:29:00;25.00;61.80
62583;DHT22;48641;51.676;5.808;2022-07-21T14:31:25;25.00;61.30
62583;DHT22;48641;51.676;5.808;2022-07-21T14:33:51;25.00;61.10
62583;DHT22;48641;51.676;5.808;2022-07-21T14:36:16;25.00;61.00
62583;DHT22;48641;51.676;5.808;2022-07-21T14:38:42;25.00;60.60
62583;DHT22;48641;51.676;5.808;2022-07-21T14:41:07;25.00;60.40
62583;DHT22;48641;51.676;5.808;2022-07-21T14:43:33;25.00;60.40
62583;DHT22;48641;51.676;5.808;2022-07-21T14:45:58;25.00;60.20
62583;DHT22;48641;51.676;5.808;2022-07-21T14:48:24;25.00;60.30
62583;DHT22;48641;51.676;5.808;2022-07-21T14:50:50;25.00;60.40
62583;DHT22;48641;51.676;5.808;2022-07-21T14:53:16;25.00;60.40
62583;DHT22;48641;51.676;5.808;2022-07-21T14:55:41;24.90;60.40
62583;DHT22;48641;51.676;5.808;2022-07-21T14:58:07;25.00;60.50
62583;DHT22;48641;51.676;5.808;2022-07-21T15:00:32;25.00;60.10
62583;DHT22;48641;51.676;5.808;2022-07-21T15:02:58;24.90;60.20
62583;DHT22;48641;51.676;5.808;2022-07-21T15:05:24;24.90;60.20
62583;DHT22;48641;51.676;5.808;2022-07-21T15:07:49;24.90;60.20
62583;DHT22;48641;51.676;5.808;2022-07-21T15:10:15;24.90;60.10
62583;DHT22;48641;51.676;5.808;2022-07-21T15:12:41;24.90;60.20
62583;DHT22;48641;51.676;5.808;2022-07-21T15:15:07;24.90;60.10
62583;DHT22;48641;51.676;5.808;2022-07-21T15:17:33;24.90;60.00
62583;DHT22;48641;51.676;5.808;2022-07-21T15:19:58;24.90;60.20
62583;DHT22;48641;51.676;5.808;2022-07-21T15:22:26;24.90;60.30
62583;DHT22;48641;51.676;5.808;2022-07-21T15:24:55;24.90;61.20
62583;DHT22;48641;51.676;5.808;2022-07-21T15:27:21;24.90;60.10
62583;DHT22;48641;51.676;5.808;2022-07-21T15:29:46;24.80;60.00
62583;DHT22;48641;51.676;5.808;2022-07-21T15:32:12;24.80;60.10
62583;DHT22;48641;51.676;5.808;2022-07-21T15:34:38;24.80;60.10
62583;DHT22;48641;51.676;5.808;2022-07-21T15:37:03;24.80;60.00
62583;DHT22;48641;51.676;5.808;2022-07-21T15:39:29;24.80;60.00
62583;DHT22;48641;51.676;5.808;2022-07-21T15:41:54;24.70;60.00
62583;DHT22;48641;51.676;5.808;2022-07-21T15:44:21;24.70;59.90
62583;DHT22;48641;51.676;5.808;2022-07-21T15:46:47;24.70;60.20
62583;DHT22;48641;51.676;5.808;2022-07-21T15:49:12;24.70;60.20
62583;DHT22;48641;51.676;5.808;2022-07-21T15:51:42;24.70;60.10
62583;DHT22;48641;51.676;5.808;2022-07-21T15:54:08;24.70;60.10
62583;DHT22;48641;51.676;5.808;2022-07-21T15:56:33;24.70;60.10
62583;DHT22;48641;51.676;5.808;2022-07-21T15:58:59;24.70;59.80
62583;DHT22;48641;51.676;5.808;2022-07-21T16:01:43;24.70;59.90
62583;DHT22;48641;51.676;5.808;2022-07-21T16:04:09;24.70;60.00
62583;DHT22;48641;51.676;5.808;2022-07-21T16:06:35;24.70;59.90
62583;DHT22;48641;51.676;5.808;2022-07-21T16:09:00;24.70;60.30
62583;DHT22;48641;51.676;5.808;2022-07-21T16:11:26;24.70;60.00
62583;DHT22;48641;51.676;5.808;2022-07-21T16:13:51;24.70;60.00